sensor_id;sensor_type;location;lat;lon;timestamp;P1;durP1;ratioP1;P2;durP2;ratioP2
48951;SDS011;34758;42.148;24.744;2023-07-24T00:02:06;13.48;;;8.65;;
48951;SDS011;34758;42.148;24.744;2023-07-24T00:04:35;10.55;;;8.20;;
48951;SDS011;34758;42.148;24.744;2023-07-24T00:07:05;9.77;;;7.13;;
48951;SDS011;34758;42.148;24.744;2023-07-24T00:12:02;8.20;;;6.40;;
48951;SDS011;34758;42.148;24.744;2023-07-24T00:14:30;8.63;;;6.18;;
48951;SDS011;34758;42.148;24.744;2023-07-24T00:16:57;10.75;;;6.50;;
48951;SDS011;34758;42.148;24.744;2023-07-24T00:19:24;11.52;;;7.13;;
48951;SDS011;34758;42.148;24.744;2023-07-24T00:21:51;9.65;;;6.68;;
48951;SDS011;34758;42.148;24.744;2023-07-24T00:24:20;11.02;;;6.82;;
48951;SDS011;34758;42.148;24.744;2023-07-24T00:26:47;9.88;;;6.97;;
48951;SDS011;34758;42.148;24.744;2023-07-24T00:29:14;9.52;;;6.78;;
48951;SDS011;34758;42.148;24.744;2023-07-24T00:31:42;11.07;;;6.95;;
48951;SDS011;34758;42.148;24.744;2023-07-24T00:34:09;10.73;;;6.95;;
48951;SDS011;34758;42.148;24.744;2023-07-24T00:36:36;10.57;;;7.47;;
48951;SDS011;34758;42.148;24.744;2023-07-24T00:39:04;14.38;;;6.63;;
48951;SDS011;34758;42.148;24.744;2023-07-24T00:41:32;7.95;;;5.72;;
48951;SDS011;34758;42.148;24.744;2023-07-24T00:43:59;10.75;;;6.28;;
48951;SDS011;34758;42.148;24.744;2023-07-24T00:46:26;7.75;;;5.40;;
48951;SDS011;34758;42.148;24.744;2023-07-24T00:48:57;6.20;;;5.30;;
48951;SDS011;34758;42.148;24.744;2023-07-24T00:51:25;9.10;;;5.40;;
48951;SDS011;34758;42.148;24.744;2023-07-24T00:53:54;7.05;;;4.53;;
48951;SDS011;34758;42.148;24.744;2023-07-24T00:56:21;7.25;;;4.82;;
48951;SDS011;34758;42.148;24.744;2023-07-24T00:58:52;8.10;;;5.15;;
48951;SDS011;34758;42.148;24.744;2023-07-24T01:01:23;8.13;;;5.03;;
48951;SDS011;34758;42.148;24.744;2023-07-24T01:03:50;6.80;;;4.35;;
48951;SDS011;34758;42.148;24.744;2023-07-24T01:06:18;6.30;;;5.03;;
48951;SDS011;34758;42.148;24.744;2023-07-24T01:08:45;7.43;;;5.32;;
48951;SDS011;34758;42.148;24.744;2023-07-24T01:11:14;8.25;;;5.05;;
48951;SDS011;34758;42.148;24.744;2023-07-24T01:13:44;8.60;;;4.87;;
48951;SDS011;34758;42.148;24.744;2023-07-24T01:16:18;6.75;;;4.60;;
48951;SDS011;34758;42.148;24.744;2023-07-24T01:18:45;8.98;;;4.95;;
48951;SDS011;34758;42.148;24.744;2023-07-24T01:21:13;5.72;;;4.72;;
48951;SDS011;34758;42.148;24.744;2023-07-24T01:23:44;6.95;;;4.63;;
48951;SDS011;34758;42.148;24.744;2023-07-24T01:26:20;9.43;;;4.60;;
48951;SDS011;34758;42.148;24.744;2023-07-24T01:28:50;8.25;;;5.25;;
48951;SDS011;34758;42.148;24.744;2023-07-24T01:31:19;8.35;;;4.28;;
48951;SDS011;34758;42.148;24.744;2023-07-24T01:33:48;8.00;;;5.20;;
48951;SDS011;34758;42.148;24.744;2023-07-24T01:36:14;8.60;;;4.93;;
48951;SDS011;34758;42.148;24.744;2023-07-24T01:38:41;9.07;;;4.40;;
48951;SDS011;34758;42.148;24.744;2023-07-24T01:41:09;7.35;;;4.45;;
48951;SDS011;34758;42.148;24.744;2023-07-24T01:43:39;7.25;;;4.40;;
48951;SDS011;34758;42.148;24.744;2023-07-24T01:46:08;8.50;;;4.50;;
48951;SDS011;34758;42.148;24.744;2023-07-24T01:48:35;5.75;;;4.10;;
48951;SDS011;34758;42.148;24.744;2023-07-24T01:51:03;8.52;;;4.53;;
48951;SDS011;34758;42.148;24.744;2023-07-24T01:53:30;8.00;;;4.60;;
48951;SDS011;34758;42.148;24.744;2023-07-24T01:55:58;6.32;;;4.30;;
48951;SDS011;34758;42.148;24.744;2023-07-24T01:58:25;6.53;;;4.20;;
48951;SDS011;34758;42.148;24.744;2023-07-24T02:00:55;7.57;;;4.57;;
48951;SDS011;34758;42.148;24.744;2023-07-24T02:03:23;10.10;;;5.13;;
48951;SDS011;34758;42.148;24.744;2023-07-24T02:05:51;8.27;;;4.25;;
48951;SDS011;34758;42.148;24.744;2023-07-24T02:08:22;6.72;;;4.53;;
48951;SDS011;34758;42.148;24.744;2023-07-24T02:10:49;9.05;;;5.30;;
48951;SDS011;34758;42.148;24.744;2023-07-24T02:13:16;7.07;;;4.75;;
48951;SDS011;34758;42.148;24.744;2023-07-24T02:15:43;7.30;;;5.35;;
48951;SDS011;34758;42.148;24.744;2023-07-24T02:18:12;7.78;;;4.60;;
48951;SDS011;34758;42.148;24.744;2023-07-24T02:20:39;10.25;;;5.57;;
48951;SDS011;34758;42.148;24.744;2023-07-24T02:23:06;8.95;;;5.95;;
48951;SDS011;34758;42.148;24.744;2023-07-24T02:25:32;9.90;;;5.55;;
48951;SDS011;34758;42.148;24.744;2023-07-24T02:28:00;8.52;;;5.90;;
48951;SDS011;34758;42.148;24.744;2023-07-24T02:30:27;11.23;;;6.57;;
48951;SDS011;34758;42.148;24.744;2023-07-24T02:32:54;10.98;;;6.40;;
48951;SDS011;34758;42.148;24.744;2023-07-24T02:35:23;11.88;;;6.93;;
48951;SDS011;34758;42.148;24.744;2023-07-24T02:37:51;11.80;;;7.13;;
48951;SDS011;34758;42.148;24.744;2023-07-24T02:40:19;8.95;;;6.43;;
48951;SDS011;34758;42.148;24.744;2023-07-24T02:42:46;11.52;;;8.70;;
48951;SDS011;34758;42.148;24.744;2023-07-24T02:45:13;12.25;;;7.72;;
48951;SDS011;34758;42.148;24.744;2023-07-24T02:47:40;16.38;;;9.25;;
48951;SDS011;34758;42.148;24.744;2023-07-24T02:50:10;16.98;;;9.40;;
48951;SDS011;34758;42.148;24.744;2023-07-24T02:52:38;11.23;;;7.03;;
48951;SDS011;34758;42.148;24.744;2023-07-24T02:55:06;13.65;;;8.90;;
48951;SDS011;34758;42.148;24.744;2023-07-24T02:57:35;16.70;;;10.07;;
48951;SDS011;34758;42.148;24.744;2023-07-24T03:00:05;13.70;;;9.95;;
48951;SDS011;34758;42.148;24.744;2023-07-24T03:02:33;14.63;;;9.40;;
48951;SDS011;34758;42.148;24.744;2023-07-24T03:05:00;18.08;;;9.13;;
48951;SDS011;34758;42.148;24.744;2023-07-24T03:07:27;18.45;;;10.70;;
48951;SDS011;34758;42.148;24.744;2023-07-24T03:09:56;15.65;;;10.73;;
48951;SDS011;34758;42.148;24.744;2023-07-24T03:12:24;20.08;;;11.68;;
48951;SDS011;34758;42.148;24.744;2023-07-24T03:14:53;18.08;;;11.93;;
48951;SDS011;34758;42.148;24.744;2023-07-24T03:17:21;22.85;;;13.20;;
48951;SDS011;34758;42.148;24.744;2023-07-24T03:19:49;17.25;;;11.35;;
48951;SDS011;34758;42.148;24.744;2023-07-24T03:22:16;17.95;;;11.68;;
48951;SDS011;34758;42.148;24.744;2023-07-24T03:24:44;17.73;;;12.27;;
48951;SDS011;34758;42.148;24.744;2023-07-24T03:27:13;19.92;;;12.70;;
48951;SDS011;34758;42.148;24.744;2023-07-24T03:29:40;20.05;;;12.15;;
48951;SDS011;34758;42.148;24.744;2023-07-24T03:32:08;20.80;;;12.43;;
48951;SDS011;34758;42.148;24.744;2023-07-24T03:34:35;20.15;;;12.25;;
48951;SDS011;34758;42.148;24.744;2023-07-24T03:37:03;23.25;;;13.50;;
48951;SDS011;34758;42.148;24.744;2023-07-24T03:39:36;20.30;;;12.45;;
48951;SDS011;34758;42.148;24.744;2023-07-24T03:42:03;17.67;;;11.50;;
48951;SDS011;34758;42.148;24.744;2023-07-24T03:44:33;19.90;;;12.88;;
48951;SDS011;34758;42.148;24.744;2023-07-24T03:47:01;17.13;;;12.20;;
48951;SDS011;34758;42.148;24.744;2023-07-24T03:49:29;16.98;;;11.98;;
48951;SDS011;34758;42.148;24.744;2023-07-24T03:51:56;17.50;;;12.98;;
48951;SDS011;34758;42.148;24.744;2023-07-24T03:54:23;19.63;;;12.82;;
48951;SDS011;34758;42.148;24.744;2023-07-24T03:56:51;19.25;;;12.75;;
48951;SDS011;34758;42.148;24.744;2023-07-24T03:59:21;17.38;;;12.35;;
48951;SDS011;34758;42.148;24.744;2023-07-24T04:01:49;17.73;;;13.10;;
48951;SDS011;34758;42.148;24.744;2023-07-24T04:04:16;18.52;;;12.60;;
48951;SDS011;34758;42.148;24.744;2023-07-24T04:06:45;19.02;;;13.25;;
48951;SDS011;34758;42.148;24.744;2023-07-24T04:09:14;20.27;;;13.00;;
48951;SDS011;34758;42.148;24.744;2023-07-24T04:11:42;20.35;;;13.65;;
48951;SDS011;34758;42.148;24.744;2023-07-24T04:14:09;19.45;;;13.75;;
48951;SDS011;34758;42.148;24.744;2023-07-24T04:16:36;20.02;;;13.63;;
48951;SDS011;34758;42.148;24.744;2023-07-24T04:19:05;22.48;;;13.57;;
48951;SDS011;34758;42.148;24.744;2023-07-24T04:21:33;18.80;;;12.57;;
48951;SDS011;34758;42.148;24.744;2023-07-24T04:24:04;17.43;;;12.27;;
48951;SDS011;34758;42.148;24.744;2023-07-24T04:26:32;16.48;;;12.65;;
48951;SDS011;34758;42.148;24.744;2023-07-24T04:28:58;16.27;;;12.30;;
48951;SDS011;34758;42.148;24.744;2023-07-24T04:31:26;20.38;;;13.80;;
48951;SDS011;34758;42.148;24.744;2023-07-24T04:33:54;22.02;;;13.45;;
48951;SDS011;34758;42.148;24.744;2023-07-24T04:36:24;17.75;;;13.25;;
48951;SDS011;34758;42.148;24.744;2023-07-24T04:38:55;19.52;;;14.18;;
48951;SDS011;34758;42.148;24.744;2023-07-24T04:41:22;20.70;;;14.50;;
48951;SDS011;34758;42.148;24.744;2023-07-24T04:43:49;21.77;;;15.32;;
48951;SDS011;34758;42.148;24.744;2023-07-24T04:46:17;21.30;;;14.18;;
48951;SDS011;34758;42.148;24.744;2023-07-24T04:48:44;21.80;;;15.23;;
48951;SDS011;34758;42.148;24.744;2023-07-24T04:51:13;23.23;;;15.20;;
48951;SDS011;34758;42.148;24.744;2023-07-24T04:53:43;22.98;;;13.82;;
48951;SDS011;34758;42.148;24.744;2023-07-24T04:56:10;22.00;;;14.32;;
48951;SDS011;34758;42.148;24.744;2023-07-24T04:58:37;21.15;;;14.60;;
48951;SDS011;34758;42.148;24.744;2023-07-24T05:01:04;22.67;;;14.65;;
48951;SDS011;34758;42.148;24.744;2023-07-24T05:03:31;19.67;;;13.20;;
48951;SDS011;34758;42.148;24.744;2023-07-24T05:05:59;22.20;;;13.52;;
48951;SDS011;34758;42.148;24.744;2023-07-24T05:08:26;20.23;;;13.18;;
48951;SDS011;34758;42.148;24.744;2023-07-24T05:10:55;18.05;;;13.10;;
48951;SDS011;34758;42.148;24.744;2023-07-24T05:13:25;21.37;;;13.87;;
48951;SDS011;34758;42.148;24.744;2023-07-24T05:15:53;22.33;;;13.15;;
48951;SDS011;34758;42.148;24.744;2023-07-24T05:18:23;20.05;;;13.38;;
48951;SDS011;34758;42.148;24.744;2023-07-24T05:20:50;17.23;;;12.90;;
48951;SDS011;34758;42.148;24.744;2023-07-24T05:23:18;19.42;;;12.77;;
48951;SDS011;34758;42.148;24.744;2023-07-24T05:25:45;20.45;;;13.80;;
48951;SDS011;34758;42.148;24.744;2023-07-24T05:28:15;21.23;;;14.30;;
48951;SDS011;34758;42.148;24.744;2023-07-24T05:30:42;16.42;;;12.80;;
48951;SDS011;34758;42.148;24.744;2023-07-24T05:33:12;18.42;;;13.65;;
48951;SDS011;34758;42.148;24.744;2023-07-24T05:35:42;16.52;;;11.38;;
48951;SDS011;34758;42.148;24.744;2023-07-24T05:38:09;18.60;;;14.38;;
48951;SDS011;34758;42.148;24.744;2023-07-24T05:40:36;17.08;;;13.35;;
48951;SDS011;34758;42.148;24.744;2023-07-24T05:43:05;18.30;;;14.02;;
48951;SDS011;34758;42.148;24.744;2023-07-24T05:45:37;17.85;;;13.50;;
48951;SDS011;34758;42.148;24.744;2023-07-24T05:48:06;19.30;;;13.60;;
48951;SDS011;34758;42.148;24.744;2023-07-24T05:50:33;19.58;;;13.55;;
48951;SDS011;34758;42.148;24.744;2023-07-24T05:53:01;24.05;;;14.25;;
48951;SDS011;34758;42.148;24.744;2023-07-24T05:55:28;20.02;;;14.32;;
48951;SDS011;34758;42.148;24.744;2023-07-24T05:57:55;19.40;;;13.30;;
48951;SDS011;34758;42.148;24.744;2023-07-24T06:00:25;20.98;;;13.73;;
48951;SDS011;34758;42.148;24.744;2023-07-24T06:02:53;19.75;;;13.43;;
48951;SDS011;34758;42.148;24.744;2023-07-24T06:05:21;19.98;;;13.77;;
48951;SDS011;34758;42.148;24.744;2023-07-24T06:07:50;20.42;;;13.57;;
48951;SDS011;34758;42.148;24.744;2023-07-24T06:10:17;17.15;;;14.27;;
48951;SDS011;34758;42.148;24.744;2023-07-24T06:12:45;20.25;;;14.15;;
48951;SDS011;34758;42.148;24.744;2023-07-24T06:15:13;22.13;;;14.27;;
48951;SDS011;34758;42.148;24.744;2023-07-24T06:17:40;18.42;;;13.57;;
48951;SDS011;34758;42.148;24.744;2023-07-24T06:20:10;19.63;;;13.10;;
48951;SDS011;34758;42.148;24.744;2023-07-24T06:22:40;20.40;;;14.75;;
48951;SDS011;34758;42.148;24.744;2023-07-24T06:25:07;29.95;;;20.08;;
48951;SDS011;34758;42.148;24.744;2023-07-24T06:27:35;20.85;;;13.73;;
48951;SDS011;34758;42.148;24.744;2023-07-24T06:30:03;22.75;;;15.50;;
48951;SDS011;34758;42.148;24.744;2023-07-24T06:32:32;17.05;;;13.50;;
48951;SDS011;34758;42.148;24.744;2023-07-24T06:34:59;29.08;;;13.85;;
48951;SDS011;34758;42.148;24.744;2023-07-24T06:37:27;18.40;;;12.80;;
48951;SDS011;34758;42.148;24.744;2023-07-24T06:39:55;19.80;;;13.63;;
48951;SDS011;34758;42.148;24.744;2023-07-24T06:42:23;18.15;;;13.02;;
48951;SDS011;34758;42.148;24.744;2023-07-24T06:44:50;22.73;;;14.20;;
48951;SDS011;34758;42.148;24.744;2023-07-24T06:47:17;18.20;;;12.38;;
48951;SDS011;34758;42.148;24.744;2023-07-24T06:49:45;22.15;;;13.20;;
48951;SDS011;34758;42.148;24.744;2023-07-24T06:52:12;18.83;;;12.95;;
48951;SDS011;34758;42.148;24.744;2023-07-24T06:54:40;17.75;;;12.77;;
48951;SDS011;34758;42.148;24.744;2023-07-24T06:57:07;16.25;;;12.93;;
48951;SDS011;34758;42.148;24.744;2023-07-24T06:59:35;16.42;;;12.45;;
48951;SDS011;34758;42.148;24.744;2023-07-24T07:02:02;14.80;;;12.52;;
48951;SDS011;34758;42.148;24.744;2023-07-24T07:04:31;21.98;;;12.45;;
48951;SDS011;34758;42.148;24.744;2023-07-24T07:07:00;19.00;;;13.07;;
48951;SDS011;34758;42.148;24.744;2023-07-24T07:09:27;19.58;;;12.95;;
48951;SDS011;34758;42.148;24.744;2023-07-24T07:11:56;28.80;;;14.85;;
48951;SDS011;34758;42.148;24.744;2023-07-24T07:14:26;19.88;;;13.88;;
48951;SDS011;34758;42.148;24.744;2023-07-24T07:16:54;19.80;;;13.02;;
48951;SDS011;34758;42.148;24.744;2023-07-24T07:19:21;19.30;;;13.65;;
48951;SDS011;34758;42.148;24.744;2023-07-24T07:21:49;17.27;;;13.60;;
48951;SDS011;34758;42.148;24.744;2023-07-24T07:24:16;19.88;;;13.13;;
48951;SDS011;34758;42.148;24.744;2023-07-24T07:26:47;20.13;;;13.65;;
48951;SDS011;34758;42.148;24.744;2023-07-24T07:29:16;19.65;;;13.60;;
48951;SDS011;34758;42.148;24.744;2023-07-24T07:31:44;17.10;;;13.77;;
48951;SDS011;34758;42.148;24.744;2023-07-24T07:34:11;20.33;;;13.10;;
48951;SDS011;34758;42.148;24.744;2023-07-24T07:36:38;17.02;;;13.07;;
48951;SDS011;34758;42.148;24.744;2023-07-24T07:39:05;17.20;;;13.52;;
48951;SDS011;34758;42.148;24.744;2023-07-24T07:41:33;18.02;;;13.38;;
48951;SDS011;34758;42.148;24.744;2023-07-24T07:44:01;18.05;;;13.55;;
48951;SDS011;34758;42.148;24.744;2023-07-24T07:46:30;20.70;;;13.50;;
48951;SDS011;34758;42.148;24.744;2023-07-24T07:48:57;19.10;;;12.75;;
48951;SDS011;34758;42.148;24.744;2023-07-24T07:51:24;22.73;;;14.80;;
48951;SDS011;34758;42.148;24.744;2023-07-24T07:53:54;20.08;;;13.05;;
48951;SDS011;34758;42.148;24.744;2023-07-24T07:56:22;19.65;;;13.55;;
48951;SDS011;34758;42.148;24.744;2023-07-24T07:58:49;18.33;;;13.52;;
48951;SDS011;34758;42.148;24.744;2023-07-24T08:01:18;18.27;;;13.52;;
48951;SDS011;34758;42.148;24.744;2023-07-24T08:03:47;16.52;;;12.00;;
48951;SDS011;34758;42.148;24.744;2023-07-24T08:06:15;16.00;;;12.00;;
48951;SDS011;34758;42.148;24.744;2023-07-24T08:08:43;18.27;;;12.10;;
48951;SDS011;34758;42.148;24.744;2023-07-24T08:11:10;19.20;;;13.13;;
48951;SDS011;34758;42.148;24.744;2023-07-24T08:13:38;15.90;;;12.93;;
48951;SDS011;34758;42.148;24.744;2023-07-24T08:16:12;24.63;;;13.25;;
48951;SDS011;34758;42.148;24.744;2023-07-24T08:18:47;17.77;;;12.65;;
48951;SDS011;34758;42.148;24.744;2023-07-24T08:21:14;16.30;;;11.98;;
48951;SDS011;34758;42.148;24.744;2023-07-24T08:23:44;16.00;;;13.00;;
48951;SDS011;34758;42.148;24.744;2023-07-24T08:26:11;18.55;;;12.45;;
48951;SDS011;34758;42.148;24.744;2023-07-24T08:28:38;17.58;;;13.30;;
48951;SDS011;34758;42.148;24.744;2023-07-24T08:31:07;18.63;;;13.55;;
48951;SDS011;34758;42.148;24.744;2023-07-24T08:33:34;18.50;;;13.80;;
48951;SDS011;34758;42.148;24.744;2023-07-24T08:36:04;20.63;;;13.30;;
48951;SDS011;34758;42.148;24.744;2023-07-24T08:38:32;16.77;;;13.75;;
48951;SDS011;34758;42.148;24.744;2023-07-24T08:41:02;20.05;;;13.95;;
48951;SDS011;34758;42.148;24.744;2023-07-24T08:43:34;17.87;;;13.47;;
48951;SDS011;34758;42.148;24.744;2023-07-24T08:46:03;19.38;;;14.48;;
48951;SDS011;34758;42.148;24.744;2023-07-24T08:48:34;18.50;;;13.23;;
48951;SDS011;34758;42.148;24.744;2023-07-24T08:51:04;19.33;;;13.82;;
48951;SDS011;34758;42.148;24.744;2023-07-24T08:53:39;18.63;;;13.38;;
48951;SDS011;34758;42.148;24.744;2023-07-24T08:56:08;17.13;;;12.98;;
48951;SDS011;34758;42.148;24.744;2023-07-24T08:58:37;17.33;;;12.73;;
48951;SDS011;34758;42.148;24.744;2023-07-24T09:01:06;20.83;;;14.98;;
48951;SDS011;34758;42.148;24.744;2023-07-24T09:03:36;19.92;;;14.18;;
48951;SDS011;34758;42.148;24.744;2023-07-24T09:06:16;17.75;;;13.52;;
48951;SDS011;34758;42.148;24.744;2023-07-24T09:11:10;16.92;;;14.20;;
48951;SDS011;34758;42.148;24.744;2023-07-24T09:13:40;19.50;;;13.73;;
48951;SDS011;34758;42.148;24.744;2023-07-24T09:16:08;15.43;;;12.48;;
48951;SDS011;34758;42.148;24.744;2023-07-24T09:18:38;17.80;;;12.88;;
48951;SDS011;34758;42.148;24.744;2023-07-24T09:21:08;19.90;;;12.23;;
48951;SDS011;34758;42.148;24.744;2023-07-24T09:23:38;19.98;;;12.45;;
48951;SDS011;34758;42.148;24.744;2023-07-24T09:26:06;16.02;;;12.80;;
48951;SDS011;34758;42.148;24.744;2023-07-24T09:28:37;16.10;;;12.73;;
48951;SDS011;34758;42.148;24.744;2023-07-24T09:31:07;16.53;;;11.57;;
48951;SDS011;34758;42.148;24.744;2023-07-24T09:33:35;16.48;;;12.15;;
48951;SDS011;34758;42.148;24.744;2023-07-24T09:36:05;13.65;;;11.85;;
48951;SDS011;34758;42.148;24.744;2023-07-24T09:38:36;13.10;;;10.38;;
48951;SDS011;34758;42.148;24.744;2023-07-24T09:41:08;13.68;;;11.05;;
48951;SDS011;34758;42.148;24.744;2023-07-24T09:43:41;13.77;;;10.20;;
48951;SDS011;34758;42.148;24.744;2023-07-24T09:46:08;14.50;;;11.10;;
48951;SDS011;34758;42.148;24.744;2023-07-24T09:48:42;11.45;;;9.48;;
48951;SDS011;34758;42.148;24.744;2023-07-24T09:51:09;11.57;;;9.30;;
48951;SDS011;34758;42.148;24.744;2023-07-24T09:53:43;12.43;;;9.75;;
48951;SDS011;34758;42.148;24.744;2023-07-24T09:56:19;12.25;;;10.25;;
48951;SDS011;34758;42.148;24.744;2023-07-24T09:58:47;14.27;;;10.25;;
48951;SDS011;34758;42.148;24.744;2023-07-24T10:01:19;12.82;;;10.30;;
48951;SDS011;34758;42.148;24.744;2023-07-24T10:03:47;13.52;;;10.20;;
48951;SDS011;34758;42.148;24.744;2023-07-24T10:06:16;12.88;;;9.88;;
48951;SDS011;34758;42.148;24.744;2023-07-24T10:08:44;27.17;;;11.32;;
48951;SDS011;34758;42.148;24.744;2023-07-24T10:11:14;15.30;;;10.90;;
48951;SDS011;34758;42.148;24.744;2023-07-24T10:13:45;14.38;;;10.35;;
48951;SDS011;34758;42.148;24.744;2023-07-24T10:16:12;26.25;;;10.68;;
48951;SDS011;34758;42.148;24.744;2023-07-24T10:18:42;27.70;;;12.73;;
48951;SDS011;34758;42.148;24.744;2023-07-24T10:21:11;12.77;;;10.90;;
48951;SDS011;34758;42.148;24.744;2023-07-24T10:23:40;13.32;;;10.15;;
48951;SDS011;34758;42.148;24.744;2023-07-24T10:26:14;14.20;;;9.57;;
48951;SDS011;34758;42.148;24.744;2023-07-24T10:28:42;13.23;;;10.15;;
48951;SDS011;34758;42.148;24.744;2023-07-24T10:31:22;11.60;;;9.95;;
48951;SDS011;34758;42.148;24.744;2023-07-24T10:33:52;14.48;;;10.38;;
48951;SDS011;34758;42.148;24.744;2023-07-24T10:36:21;10.75;;;9.65;;
48951;SDS011;34758;42.148;24.744;2023-07-24T10:38:52;14.23;;;11.57;;
48951;SDS011;34758;42.148;24.744;2023-07-24T10:41:34;16.20;;;10.93;;
48951;SDS011;34758;42.148;24.744;2023-07-24T10:44:11;12.38;;;11.00;;
48951;SDS011;34758;42.148;24.744;2023-07-24T10:46:41;14.02;;;11.32;;
48951;SDS011;34758;42.148;24.744;2023-07-24T10:49:11;17.20;;;10.95;;
48951;SDS011;34758;42.148;24.744;2023-07-24T10:51:38;15.48;;;11.18;;
48951;SDS011;34758;42.148;24.744;2023-07-24T10:54:05;13.63;;;10.32;;
48951;SDS011;34758;42.148;24.744;2023-07-24T10:56:36;14.60;;;11.27;;
48951;SDS011;34758;42.148;24.744;2023-07-24T10:59:06;34.78;;;11.95;;
48951;SDS011;34758;42.148;24.744;2023-07-24T11:01:33;16.17;;;10.75;;
48951;SDS011;34758;42.148;24.744;2023-07-24T11:04:05;13.75;;;11.07;;
48951;SDS011;34758;42.148;24.744;2023-07-24T11:06:34;13.30;;;10.88;;
48951;SDS011;34758;42.148;24.744;2023-07-24T11:09:02;12.77;;;11.05;;
48951;SDS011;34758;42.148;24.744;2023-07-24T11:11:30;14.73;;;10.88;;
48951;SDS011;34758;42.148;24.744;2023-07-24T11:13:59;13.00;;;11.15;;
48951;SDS011;34758;42.148;24.744;2023-07-24T11:16:29;12.50;;;10.57;;
48951;SDS011;34758;42.148;24.744;2023-07-24T11:18:59;15.07;;;11.07;;
48951;SDS011;34758;42.148;24.744;2023-07-24T11:21:32;13.98;;;11.63;;
48951;SDS011;34758;42.148;24.744;2023-07-24T11:24:06;13.63;;;11.32;;
48951;SDS011;34758;42.148;24.744;2023-07-24T11:26:34;15.00;;;11.85;;
48951;SDS011;34758;42.148;24.744;2023-07-24T11:29:10;14.13;;;11.90;;
48951;SDS011;34758;42.148;24.744;2023-07-24T11:31:38;15.00;;;11.60;;
48951;SDS011;34758;42.148;24.744;2023-07-24T11:34:06;13.65;;;11.55;;
48951;SDS011;34758;42.148;24.744;2023-07-24T11:36:36;13.73;;;11.30;;
48951;SDS011;34758;42.148;24.744;2023-07-24T11:39:06;14.30;;;11.48;;
48951;SDS011;34758;42.148;24.744;2023-07-24T11:41:32;17.15;;;11.23;;
48951;SDS011;34758;42.148;24.744;2023-07-24T11:44:00;16.23;;;11.05;;
48951;SDS011;34758;42.148;24.744;2023-07-24T11:46:29;15.77;;;11.40;;
48951;SDS011;34758;42.148;24.744;2023-07-24T11:48:58;15.75;;;10.85;;
48951;SDS011;34758;42.148;24.744;2023-07-24T11:51:27;13.50;;;11.95;;
48951;SDS011;34758;42.148;24.744;2023-07-24T11:54:04;15.10;;;10.80;;
48951;SDS011;34758;42.148;24.744;2023-07-24T11:56:36;14.80;;;11.13;;
48951;SDS011;34758;42.148;24.744;2023-07-24T11:59:11;26.83;;;11.40;;
48951;SDS011;34758;42.148;24.744;2023-07-24T12:01:41;22.50;;;12.55;;
48951;SDS011;34758;42.148;24.744;2023-07-24T12:04:12;40.08;;;13.45;;
48951;SDS011;34758;42.148;24.744;2023-07-24T12:06:49;31.67;;;12.48;;
48951;SDS011;34758;42.148;24.744;2023-07-24T12:09:18;33.88;;;11.38;;
48951;SDS011;34758;42.148;24.744;2023-07-24T12:11:45;19.77;;;11.00;;
48951;SDS011;34758;42.148;24.744;2023-07-24T12:14:14;27.10;;;10.18;;
48951;SDS011;34758;42.148;24.744;2023-07-24T12:16:44;16.73;;;9.85;;
48951;SDS011;34758;42.148;24.744;2023-07-24T12:19:10;12.43;;;10.32;;
48951;SDS011;34758;42.148;24.744;2023-07-24T12:21:38;19.58;;;11.35;;
48951;SDS011;34758;42.148;24.744;2023-07-24T12:24:05;26.23;;;11.98;;
48951;SDS011;34758;42.148;24.744;2023-07-24T12:26:34;10.73;;;9.23;;
48951;SDS011;34758;42.148;24.744;2023-07-24T12:29:01;10.70;;;9.50;;
48951;SDS011;34758;42.148;24.744;2023-07-24T12:31:27;10.85;;;9.35;;
48951;SDS011;34758;42.148;24.744;2023-07-24T12:33:54;10.45;;;9.35;;
48951;SDS011;34758;42.148;24.744;2023-07-24T12:36:22;27.65;;;10.82;;
48951;SDS011;34758;42.148;24.744;2023-07-24T12:38:50;11.73;;;9.80;;
48951;SDS011;34758;42.148;24.744;2023-07-24T12:41:17;12.00;;;10.15;;
48951;SDS011;34758;42.148;24.744;2023-07-24T12:43:46;10.60;;;9.02;;
48951;SDS011;34758;42.148;24.744;2023-07-24T12:46:14;14.38;;;9.02;;
48951;SDS011;34758;42.148;24.744;2023-07-24T12:48:41;12.05;;;9.63;;
48951;SDS011;34758;42.148;24.744;2023-07-24T12:51:07;11.50;;;9.38;;
48951;SDS011;34758;42.148;24.744;2023-07-24T12:53:37;11.73;;;10.15;;
48951;SDS011;34758;42.148;24.744;2023-07-24T12:56:04;10.25;;;9.18;;
48951;SDS011;34758;42.148;24.744;2023-07-24T12:58:31;11.65;;;9.23;;
48951;SDS011;34758;42.148;24.744;2023-07-24T13:01:05;12.95;;;9.30;;
48951;SDS011;34758;42.148;24.744;2023-07-24T13:03:34;11.97;;;9.50;;
48951;SDS011;34758;42.148;24.744;2023-07-24T13:06:02;11.55;;;9.85;;
48951;SDS011;34758;42.148;24.744;2023-07-24T13:08:29;10.20;;;8.93;;
48951;SDS011;34758;42.148;24.744;2023-07-24T13:10:57;11.43;;;8.60;;
48951;SDS011;34758;42.148;24.744;2023-07-24T13:13:24;9.55;;;8.48;;
48951;SDS011;34758;42.148;24.744;2023-07-24T13:15:51;10.82;;;9.15;;
48951;SDS011;34758;42.148;24.744;2023-07-24T13:18:21;11.55;;;9.35;;
48951;SDS011;34758;42.148;24.744;2023-07-24T13:20:50;15.45;;;9.95;;
48951;SDS011;34758;42.148;24.744;2023-07-24T13:23:17;11.18;;;8.95;;
48951;SDS011;34758;42.148;24.744;2023-07-24T13:25:45;11.75;;;8.90;;
48951;SDS011;34758;42.148;24.744;2023-07-24T13:28:11;12.13;;;8.52;;
48951;SDS011;34758;42.148;24.744;2023-07-24T13:30:38;10.68;;;8.60;;
48951;SDS011;34758;42.148;24.744;2023-07-24T13:33:05;10.55;;;8.77;;
48951;SDS011;34758;42.148;24.744;2023-07-24T13:35:36;10.47;;;9.07;;
48951;SDS011;34758;42.148;24.744;2023-07-24T13:38:04;10.65;;;9.40;;
48951;SDS011;34758;42.148;24.744;2023-07-24T13:40:33;11.48;;;8.60;;
48951;SDS011;34758;42.148;24.744;2023-07-24T13:43:00;11.40;;;9.75;;
48951;SDS011;34758;42.148;24.744;2023-07-24T13:45:28;12.95;;;9.32;;
48951;SDS011;34758;42.148;24.744;2023-07-24T13:47:56;9.65;;;8.68;;
48951;SDS011;34758;42.148;24.744;2023-07-24T13:50:24;9.68;;;8.68;;
48951;SDS011;34758;42.148;24.744;2023-07-24T13:52:52;10.18;;;8.57;;
48951;SDS011;34758;42.148;24.744;2023-07-24T13:55:19;10.77;;;8.55;;
48951;SDS011;34758;42.148;24.744;2023-07-24T13:57:47;11.32;;;9.25;;
48951;SDS011;34758;42.148;24.744;2023-07-24T14:00:14;10.80;;;8.85;;
48951;SDS011;34758;42.148;24.744;2023-07-24T14:02:43;10.05;;;9.05;;
48951;SDS011;34758;42.148;24.744;2023-07-24T14:05:12;18.85;;;9.55;;
48951;SDS011;34758;42.148;24.744;2023-07-24T14:07:41;10.40;;;8.98;;
48951;SDS011;34758;42.148;24.744;2023-07-24T14:10:09;10.75;;;8.68;;
48951;SDS011;34758;42.148;24.744;2023-07-24T14:12:38;10.88;;;9.75;;
48951;SDS011;34758;42.148;24.744;2023-07-24T14:15:05;9.98;;;8.75;;
48951;SDS011;34758;42.148;24.744;2023-07-24T14:17:33;9.77;;;8.65;;
48951;SDS011;34758;42.148;24.744;2023-07-24T14:20:01;9.75;;;8.73;;
48951;SDS011;34758;42.148;24.744;2023-07-24T14:22:28;9.63;;;8.68;;
48951;SDS011;34758;42.148;24.744;2023-07-24T14:24:55;9.27;;;8.43;;
48951;SDS011;34758;42.148;24.744;2023-07-24T14:27:24;9.60;;;8.70;;
48951;SDS011;34758;42.148;24.744;2023-07-24T14:29:52;10.23;;;9.23;;